createdAt,value
2019-04-29T00:01:13.809Z,8.40
2019-04-29T00:03:42.841Z,8.40
2019-04-29T00:06:12.028Z,8.30
2019-04-29T00:08:41.410Z,8.30
2019-04-29T00:11:10.801Z,8.20
2019-04-29T00:13:40.791Z,8.20
2019-04-29T00:16:20.981Z,8.20
2019-04-29T00:19:07.844Z,8.20
2019-04-29T00:21:37.459Z,8.20
2019-04-29T00:24:06.728Z,8.20
2019-04-29T00:26:35.940Z,8.30
2019-04-29T00:29:05.293Z,8.20
2019-04-29T00:31:34.780Z,8.30
2019-04-29T00:34:04.048Z,8.30
2019-04-29T00:36:34.709Z,8.30
2019-04-29T00:39:24.469Z,8.30
2019-04-29T00:41:58.026Z,8.40
2019-04-29T00:44:27.117Z,8.40
2019-04-29T00:46:56.390Z,8.40
2019-04-29T00:49:25.559Z,8.40
2019-04-29T00:51:54.705Z,8.30
2019-04-29T00:54:25.308Z,8.20
2019-04-29T00:56:54.255Z,8.20
2019-04-29T00:59:23.383Z,8.20
2019-04-29T01:01:53.058Z,8.20
2019-04-29T01:04:22.086Z,8.20
2019-04-29T01:06:51.105Z,8.10
2019-04-29T01:09:20.429Z,8.10
2019-04-29T01:11:49.647Z,8.10
2019-04-29T01:14:18.755Z,8.00
2019-04-29T01:16:47.866Z,8.00
2019-04-29T01:19:16.983Z,8.00
2019-04-29T01:21:46.176Z,8.00
2019-04-29T01:24:15.198Z,7.90
2019-04-29T01:26:58.339Z,7.90
2019-04-29T01:29:28.988Z,8.00
2019-04-29T01:31:58.154Z,8.00
2019-04-29T01:34:28.897Z,7.90
2019-04-29T01:36:58.194Z,7.90
2019-04-29T01:39:29.292Z,7.80
2019-04-29T01:41:59.963Z,7.80
2019-04-29T01:44:30.628Z,7.80
2019-04-29T01:46:59.955Z,7.80
2019-04-29T01:49:29.046Z,7.80
2019-04-29T01:51:58.195Z,7.80
2019-04-29T01:54:29.639Z,7.90
2019-04-29T01:56:58.970Z,7.90
2019-04-29T01:59:28.191Z,7.90
2019-04-29T02:01:57.215Z,8.00
2019-04-29T02:04:26.424Z,8.00
2019-04-29T02:06:56.579Z,8.00
2019-04-29T02:09:32.931Z,8.00
2019-04-29T02:12:02.225Z,8.00
2019-04-29T02:14:31.332Z,8.10
2019-04-29T02:17:01.564Z,8.00
2019-04-29T02:19:30.744Z,8.00
2019-04-29T02:22:17.270Z,8.00
2019-04-29T02:24:47.921Z,8.00
2019-04-29T02:27:16.965Z,8.00
2019-04-29T02:29:45.915Z,8.10
2019-04-29T02:32:14.874Z,8.00
2019-04-29T02:34:43.821Z,8.10
2019-04-29T02:37:14.533Z,8.00
2019-04-29T02:39:47.818Z,8.00
2019-04-29T02:42:35.072Z,7.90
2019-04-29T02:45:07.765Z,7.90
2019-04-29T02:47:36.821Z,7.80
2019-04-29T02:50:07.195Z,7.80
2019-04-29T02:52:36.215Z,7.70
2019-04-29T02:55:08.448Z,7.70
2019-04-29T02:57:45.102Z,7.70
2019-04-29T03:00:26.690Z,7.70
2019-04-29T03:02:57.515Z,7.60
2019-04-29T03:05:28.498Z,7.60
2019-04-29T03:07:57.707Z,7.50
2019-04-29T03:10:26.849Z,7.50
2019-04-29T03:12:55.828Z,7.40
2019-04-29T03:15:34.429Z,7.50
2019-04-29T03:18:03.696Z,7.50
2019-04-29T03:20:37.259Z,7.50
2019-04-29T03:23:20.142Z,7.40
2019-04-29T03:25:49.199Z,7.50
2019-04-29T03:28:18.305Z,7.50
2019-04-29T03:30:47.405Z,7.60
2019-04-29T03:33:16.711Z,7.60
2019-04-29T03:35:46.300Z,7.60
2019-04-29T03:38:15.552Z,7.70
2019-04-29T03:40:44.819Z,7.70
2019-04-29T03:43:13.860Z,7.70
2019-04-29T03:45:42.917Z,7.60
2019-04-29T03:48:11.988Z,7.60
2019-04-29T03:50:40.971Z,7.60
2019-04-29T03:53:10.003Z,7.70
2019-04-29T03:55:40.720Z,7.60
2019-04-29T03:58:09.941Z,7.60
2019-04-29T04:00:43.585Z,7.60
2019-04-29T04:03:17.541Z,7.70
2019-04-29T04:05:50.921Z,7.80
2019-04-29T04:08:21.693Z,7.80
2019-04-29T04:10:51.029Z,7.60
2019-04-29T04:13:19.970Z,7.60
2019-04-29T04:15:49.186Z,7.60
2019-04-29T04:18:19.958Z,7.70
2019-04-29T04:20:49.064Z,7.50
2019-04-29T04:23:18.022Z,7.50
2019-04-29T04:25:47.138Z,7.50
2019-04-29T04:28:16.293Z,7.50
2019-04-29T04:30:45.482Z,7.40
2019-04-29T04:33:14.595Z,7.40
2019-04-29T04:35:43.742Z,7.50
2019-04-29T04:38:12.757Z,7.50
2019-04-29T04:40:46.814Z,7.40
2019-04-29T04:43:15.940Z,7.40
2019-04-29T04:45:45.008Z,7.50
2019-04-29T04:48:13.954Z,7.40
2019-04-29T04:50:43.134Z,7.50
2019-04-29T04:53:12.320Z,7.40
2019-04-29T04:55:43.141Z,7.40
2019-04-29T04:58:12.328Z,7.40
2019-04-29T05:00:41.523Z,7.50
2019-04-29T05:03:10.699Z,7.50
2019-04-29T05:05:42.600Z,7.60
2019-04-29T05:08:10.394Z,7.70
2019-04-29T05:10:39.370Z,7.70
2019-04-29T05:13:08.339Z,7.80
2019-04-29T05:15:37.327Z,7.90
2019-04-29T05:18:06.384Z,7.90
2019-04-29T05:20:35.333Z,7.90
2019-04-29T05:23:04.536Z,8.00
2019-04-29T05:25:34.321Z,8.00
2019-04-29T05:28:04.284Z,8.00
2019-04-29T05:30:33.642Z,8.00
2019-04-29T05:33:02.788Z,8.10
2019-04-29T05:35:33.453Z,8.10
2019-04-29T05:38:06.887Z,8.20
2019-04-29T05:40:49.661Z,8.20
2019-04-29T05:43:27.258Z,8.30
2019-04-29T05:46:10.438Z,8.40
2019-04-29T05:48:39.417Z,8.30
2019-04-29T05:51:27.263Z,8.40
2019-04-29T05:54:07.807Z,8.40
2019-04-29T05:56:36.757Z,8.50
2019-04-29T05:59:08.576Z,8.50
2019-04-29T06:01:36.754Z,8.50
2019-04-29T06:04:06.170Z,8.40
2019-04-29T06:06:35.200Z,8.40
2019-04-29T06:09:06.881Z,8.50
2019-04-29T06:11:36.183Z,8.50
2019-04-29T06:14:06.338Z,8.50
2019-04-29T06:16:35.579Z,8.50
2019-04-29T06:19:06.045Z,8.60
2019-04-29T06:21:35.433Z,8.60
2019-04-29T06:24:06.317Z,8.60
2019-04-29T06:26:35.673Z,8.60
2019-04-29T06:29:05.977Z,8.50
2019-04-29T06:31:35.402Z,8.60
2019-04-29T06:34:05.123Z,8.70
2019-04-29T06:36:35.597Z,8.70
2019-04-29T06:39:07.008Z,8.80
2019-04-29T06:41:36.231Z,8.90
2019-04-29T06:44:07.361Z,8.90
2019-04-29T06:46:36.175Z,8.90
2019-04-29T06:49:10.543Z,8.90
2019-04-29T06:51:36.040Z,8.90
2019-04-29T06:54:05.152Z,8.90
2019-04-29T06:56:34.409Z,8.90
2019-04-29T06:59:03.451Z,8.90
2019-04-29T07:01:33.128Z,8.90
2019-04-29T07:04:03.464Z,8.90
2019-04-29T07:06:32.634Z,8.80
2019-04-29T07:09:01.607Z,8.90
2019-04-29T07:11:31.775Z,8.80
2019-04-29T07:14:01.435Z,8.90
2019-04-29T07:16:32.022Z,8.90
2019-04-29T07:19:01.277Z,9.00
2019-04-29T07:21:30.583Z,9.00
2019-04-29T07:23:59.645Z,8.90
2019-04-29T07:26:28.761Z,8.90
2019-04-29T07:28:57.760Z,9.10
2019-04-29T07:31:28.143Z,9.10
2019-04-29T07:33:57.963Z,9.30
2019-04-29T07:36:28.267Z,9.40
2019-04-29T07:38:57.393Z,9.40
2019-04-29T07:41:26.392Z,9.40
2019-04-29T07:43:55.357Z,9.40
2019-04-29T07:46:28.696Z,9.40
2019-04-29T07:49:01.735Z,9.50
2019-04-29T07:51:28.455Z,9.60
2019-04-29T07:53:57.684Z,9.70
2019-04-29T07:56:26.789Z,9.60
2019-04-29T07:58:58.971Z,9.70
2019-04-29T08:01:26.540Z,9.70
2019-04-29T08:03:55.658Z,9.70
2019-04-29T08:06:24.836Z,9.70
2019-04-29T08:08:55.710Z,9.60
2019-04-29T08:11:25.043Z,9.60
2019-04-29T08:13:54.300Z,9.60
2019-04-29T08:16:23.280Z,9.70
2019-04-29T08:18:53.510Z,9.80
2019-04-29T08:21:23.281Z,9.90
2019-04-29T08:23:52.330Z,10.00
2019-04-29T08:26:21.501Z,10.10
2019-04-29T08:28:52.942Z,10.00
2019-04-29T08:31:22.414Z,10.10
2019-04-29T08:33:51.445Z,10.10
2019-04-29T08:36:20.407Z,10.20
2019-04-29T08:38:49.464Z,10.20
2019-04-29T08:41:21.521Z,10.00
2019-04-29T08:44:16.351Z,10.00
2019-04-29T08:46:44.469Z,10.00
2019-04-29T08:49:14.766Z,10.00
2019-04-29T08:51:43.598Z,10.20
2019-04-29T08:54:16.151Z,10.30
2019-04-29T08:57:01.693Z,10.40
2019-04-29T08:59:14.840Z,10.50
2019-04-29T09:01:43.773Z,10.60
2019-04-29T09:04:12.996Z,10.70
2019-04-29T09:06:42.080Z,10.80
2019-04-29T09:09:27.927Z,10.80
2019-04-29T09:11:43.719Z,10.80
2019-04-29T09:14:13.029Z,10.60
2019-04-29T09:16:42.291Z,10.70
2019-04-29T09:19:11.531Z,10.80
2019-04-29T09:21:42.288Z,10.90
2019-04-29T09:24:11.573Z,10.90
2019-04-29T09:26:42.341Z,11.00
2019-04-29T09:29:30.923Z,11.20
2019-04-29T09:32:00.390Z,11.40
2019-04-29T09:34:29.521Z,11.60
2019-04-29T09:36:58.805Z,11.70
2019-04-29T09:39:27.831Z,11.80
2019-04-29T09:41:58.442Z,11.80
2019-04-29T09:44:39.339Z,11.90
2019-04-29T09:47:08.614Z,12.10
2019-04-29T09:49:37.285Z,12.20
2019-04-29T09:52:06.478Z,12.40
2019-04-29T09:54:35.462Z,12.60
2019-04-29T09:57:04.619Z,12.70
2019-04-29T09:59:47.093Z,12.90
2019-04-29T10:02:31.460Z,13.10
2019-04-29T10:05:05.225Z,13.20
2019-04-29T10:07:34.422Z,13.00
2019-04-29T10:10:06.828Z,13.00
2019-04-29T10:12:35.567Z,13.00
2019-04-29T10:15:06.766Z,13.10
2019-04-29T10:17:55.857Z,13.20
2019-04-29T10:20:30.692Z,13.20
2019-04-29T10:22:59.628Z,13.40
2019-04-29T10:25:29.326Z,13.50
2019-04-29T10:27:58.695Z,13.50
2019-04-29T10:30:31.260Z,13.60
2019-04-29T10:32:59.659Z,13.60
2019-04-29T10:35:28.961Z,13.60
2019-04-29T10:38:02.810Z,13.70
2019-04-29T10:40:47.022Z,13.60
2019-04-29T10:43:30.181Z,13.60
2019-04-29T10:46:00.893Z,13.70
2019-04-29T10:48:34.405Z,13.80
2019-04-29T10:51:04.590Z,13.90
2019-04-29T10:53:34.362Z,13.90
2019-04-29T10:56:05.736Z,14.00
2019-04-29T10:58:35.613Z,13.90
2019-04-29T11:01:33.712Z,13.90
2019-04-29T11:04:03.175Z,13.90
2019-04-29T11:06:35.914Z,13.80
2019-04-29T11:09:09.586Z,13.80
2019-04-29T11:11:37.858Z,13.80
2019-04-29T11:14:07.648Z,13.60
2019-04-29T11:16:46.136Z,13.50
2019-04-29T11:19:07.750Z,13.30
2019-04-29T11:21:38.998Z,13.10
2019-04-29T11:24:09.864Z,12.80
2019-04-29T11:26:49.523Z,12.60
2019-04-29T11:29:22.150Z,12.70
2019-04-29T11:31:53.991Z,12.50
2019-04-29T11:34:25.463Z,12.30
2019-04-29T11:36:54.659Z,12.00
2019-04-29T11:39:24.030Z,12.00
2019-04-29T11:41:54.641Z,12.00
2019-04-29T11:44:26.608Z,12.00
2019-04-29T11:46:54.940Z,12.00
2019-04-29T11:49:25.702Z,12.00
2019-04-29T11:52:09.005Z,12.10
2019-04-29T11:54:25.784Z,12.30
2019-04-29T11:56:54.853Z,12.30
2019-04-29T11:59:25.639Z,12.30
2019-04-29T12:02:13.309Z,12.30
2019-04-29T12:04:49.585Z,12.50
2019-04-29T12:07:21.234Z,12.60
2019-04-29T12:09:50.741Z,12.60
2019-04-29T12:12:20.800Z,12.60
2019-04-29T12:14:57.577Z,12.60
2019-04-29T12:17:37.232Z,12.60
2019-04-29T12:20:24.814Z,12.70
2019-04-29T12:22:54.047Z,12.80
2019-04-29T12:25:27.340Z,12.80
2019-04-29T12:28:01.727Z,12.90
2019-04-29T12:30:29.943Z,13.00
2019-04-29T12:33:07.679Z,13.00
2019-04-29T12:35:51.023Z,13.00
2019-04-29T12:38:19.875Z,13.00
2019-04-29T12:40:55.059Z,12.90
2019-04-29T12:43:37.695Z,12.80
2019-04-29T12:46:10.247Z,12.90
2019-04-29T12:48:39.330Z,13.00
2019-04-29T12:51:08.465Z,13.00
2019-04-29T12:53:37.571Z,13.10
2019-04-29T12:56:07.182Z,13.20
2019-04-29T12:58:37.821Z,13.20
2019-04-29T13:01:08.779Z,13.20
2019-04-29T13:03:55.054Z,13.20
2019-04-29T13:06:39.397Z,13.20
2019-04-29T13:09:17.547Z,13.10
2019-04-29T13:11:48.202Z,13.10
2019-04-29T13:14:10.134Z,13.10
2019-04-29T13:16:43.418Z,13.00
2019-04-29T13:19:32.466Z,13.00
2019-04-29T13:22:01.687Z,12.90
2019-04-29T13:24:30.731Z,12.80
2019-04-29T13:26:59.774Z,12.70
2019-04-29T13:29:32.057Z,12.70
2019-04-29T13:32:01.768Z,12.70
2019-04-29T13:34:33.482Z,12.60
2019-04-29T13:37:07.183Z,12.60
2019-04-29T13:39:39.887Z,12.50
2019-04-29T13:42:09.234Z,12.50
2019-04-29T13:44:41.655Z,12.40
2019-04-29T13:47:10.618Z,12.10
2019-04-29T13:49:41.430Z,12.00
2019-04-29T13:52:11.201Z,12.00
2019-04-29T13:54:42.241Z,12.00
2019-04-29T13:57:16.227Z,12.00
2019-04-29T13:59:49.396Z,11.90
2019-04-29T14:02:22.773Z,11.90
2019-04-29T14:04:52.081Z,11.90
2019-04-29T14:07:22.922Z,11.70
2019-04-29T14:09:52.145Z,11.80
2019-04-29T14:14:53.959Z,11.90
2019-04-29T14:17:26.524Z,12.00
2019-04-29T14:19:56.929Z,12.20
2019-04-29T14:22:25.420Z,12.20
2019-04-29T14:24:54.660Z,12.40
2019-04-29T14:27:25.364Z,12.40
2019-04-29T14:29:54.468Z,12.50
2019-04-29T14:32:34.714Z,12.50
2019-04-29T14:34:56.143Z,12.50
2019-04-29T14:37:25.669Z,12.60
2019-04-29T14:39:54.906Z,12.60
2019-04-29T14:42:31.992Z,12.60
2019-04-29T14:45:02.788Z,12.50
2019-04-29T14:47:33.489Z,12.20
2019-04-29T14:50:04.180Z,12.00
2019-04-29T14:52:33.443Z,12.00
2019-04-29T14:55:02.551Z,12.00
2019-04-29T14:57:31.644Z,12.00
2019-04-29T15:00:00.806Z,12.10
2019-04-29T15:02:30.333Z,11.90
2019-04-29T15:04:59.855Z,11.80
2019-04-29T15:07:30.620Z,11.70
2019-04-29T15:09:59.656Z,11.70
2019-04-29T15:12:51.264Z,11.60
2019-04-29T15:15:29.892Z,11.70
2019-04-29T15:18:15.550Z,11.70
2019-04-29T15:20:37.258Z,11.60
2019-04-29T15:23:06.298Z,11.40
2019-04-29T15:25:35.533Z,11.40
2019-04-29T15:28:04.847Z,11.50
2019-04-29T15:30:36.712Z,11.50
2019-04-29T15:33:05.161Z,11.40
2019-04-29T15:35:34.312Z,11.40
2019-04-29T15:38:03.537Z,11.30
2019-04-29T15:40:32.784Z,11.20
2019-04-29T15:43:02.167Z,11.10
2019-04-29T15:45:32.428Z,11.20
2019-04-29T15:48:01.999Z,11.20
2019-04-29T15:50:32.724Z,11.30
2019-04-29T15:53:03.054Z,11.30
2019-04-29T15:55:34.935Z,11.40
2019-04-29T15:58:03.584Z,11.40
2019-04-29T16:00:38.040Z,11.30
2019-04-29T16:03:03.813Z,11.20
2019-04-29T16:05:53.882Z,11.30
2019-04-29T16:08:29.432Z,11.30
2019-04-29T16:11:14.827Z,11.30
2019-04-29T16:13:47.974Z,11.40
2019-04-29T16:16:14.574Z,11.40
2019-04-29T16:18:43.790Z,11.50
2019-04-29T16:21:12.947Z,11.50
2019-04-29T16:23:41.965Z,11.50
2019-04-29T16:26:11.087Z,11.50
2019-04-29T16:28:40.431Z,11.50
2019-04-29T16:31:12.209Z,11.50
2019-04-29T16:33:40.281Z,11.50
2019-04-29T16:36:09.442Z,11.50
2019-04-29T16:38:38.655Z,11.50
2019-04-29T16:41:26.289Z,11.50
2019-04-29T16:43:56.347Z,11.50
2019-04-29T16:46:35.827Z,11.50
2019-04-29T16:49:00.751Z,11.40
2019-04-29T16:51:30.076Z,11.50
2019-04-29T16:53:59.206Z,11.40
2019-04-29T16:56:28.270Z,11.50
2019-04-29T16:58:57.507Z,11.40
2019-04-29T17:01:27.039Z,11.40
2019-04-29T17:03:56.324Z,11.30
2019-04-29T17:06:25.378Z,11.30
2019-04-29T17:09:03.487Z,11.30
2019-04-29T17:11:31.612Z,11.30
2019-04-29T17:14:03.498Z,11.30
2019-04-29T17:16:31.648Z,11.30
2019-04-29T17:19:00.811Z,11.30
2019-04-29T17:21:29.978Z,11.20
2019-04-29T17:23:59.118Z,11.20
2019-04-29T17:26:32.848Z,11.10
2019-04-29T17:29:11.748Z,11.10
2019-04-29T17:31:42.170Z,11.10
2019-04-29T17:34:25.129Z,11.00
2019-04-29T17:36:46.844Z,11.00
2019-04-29T17:39:16.296Z,11.10
2019-04-29T17:41:45.708Z,10.90
2019-04-29T17:44:25.140Z,10.90
2019-04-29T17:46:58.612Z,10.80
2019-04-29T17:49:30.694Z,10.80
2019-04-29T17:52:03.011Z,10.70
2019-04-29T17:54:32.865Z,10.70
2019-04-29T17:57:28.254Z,10.70
2019-04-29T18:00:05.169Z,10.70
2019-04-29T18:02:52.499Z,10.70
2019-04-29T18:05:28.128Z,10.80
2019-04-29T18:07:59.670Z,10.70
2019-04-29T18:10:30.598Z,10.80
2019-04-29T18:12:59.950Z,10.70
2019-04-29T18:15:41.907Z,10.70
2019-04-29T18:18:07.231Z,10.60
2019-04-29T18:20:35.713Z,10.50
2019-04-29T18:23:22.004Z,10.50
2019-04-29T18:25:52.824Z,10.50
2019-04-29T18:28:22.483Z,10.50
2019-04-29T18:30:54.444Z,10.40
2019-04-29T18:33:25.997Z,10.40
2019-04-29T18:36:02.106Z,10.30
2019-04-29T18:38:26.218Z,10.30
2019-04-29T18:40:55.806Z,10.30
2019-04-29T18:43:26.574Z,10.30
2019-04-29T18:45:58.892Z,10.30
2019-04-29T18:48:27.138Z,10.20
2019-04-29T18:50:57.147Z,10.20
2019-04-29T18:53:26.470Z,10.10
2019-04-29T18:55:55.512Z,10.10
2019-04-29T18:58:25.065Z,10.10
2019-04-29T19:00:56.391Z,10.10
2019-04-29T19:03:29.674Z,10.10
2019-04-29T19:06:03.259Z,10.00
2019-04-29T19:08:32.567Z,10.00
2019-04-29T19:11:01.697Z,10.00
2019-04-29T19:13:31.054Z,10.00
2019-04-29T19:16:09.438Z,9.90
2019-04-29T19:18:31.131Z,9.90
2019-04-29T19:21:00.646Z,9.80
2019-04-29T19:23:29.866Z,9.80
2019-04-29T19:25:59.438Z,9.80
2019-04-29T19:28:31.098Z,9.70
2019-04-29T19:31:03.078Z,9.70
2019-04-29T19:33:30.650Z,9.80
2019-04-29T19:36:00.962Z,9.80
2019-04-29T19:38:29.924Z,9.80
2019-04-29T19:40:59.078Z,9.80
2019-04-29T19:43:28.760Z,9.80
2019-04-29T19:45:57.854Z,9.80
2019-04-29T19:48:28.614Z,9.80
2019-04-29T19:51:13.977Z,9.80
2019-04-29T19:53:28.465Z,9.80
2019-04-29T19:56:04.170Z,9.70
2019-04-29T19:58:31.368Z,9.70
2019-04-29T20:01:10.873Z,9.70
2019-04-29T20:03:37.679Z,9.70
2019-04-29T20:06:09.509Z,9.60
2019-04-29T20:08:53.442Z,9.60
2019-04-29T20:11:14.247Z,9.60
2019-04-29T20:13:41.518Z,9.60
2019-04-29T20:22:55.678Z,9.70
2019-04-29T20:25:30.275Z,9.70
2019-04-29T20:28:05.617Z,9.70
2019-04-29T20:30:26.640Z,9.70
2019-04-29T20:32:56.206Z,9.80
2019-04-29T20:35:25.989Z,9.70
2019-04-29T20:38:00.194Z,9.70
2019-04-29T20:40:35.215Z,9.70
2019-04-29T20:42:58.916Z,9.80
2019-04-29T20:45:29.085Z,9.80
2019-04-29T20:47:58.487Z,9.90
2019-04-29T20:50:27.786Z,9.90
2019-04-29T20:53:02.494Z,9.90
2019-04-29T20:55:36.285Z,9.90
2019-04-29T20:58:04.482Z,9.90
2019-04-29T21:00:35.588Z,9.90
2019-04-29T21:03:09.372Z,9.80
2019-04-29T21:05:47.355Z,9.90
2019-04-29T21:08:14.337Z,9.90
2019-04-29T21:10:42.782Z,9.90
2019-04-29T21:13:20.230Z,10.00
2019-04-29T21:15:53.310Z,10.00
2019-04-29T21:18:22.694Z,10.00
2019-04-29T21:20:51.715Z,10.10
2019-04-29T21:23:20.900Z,10.10
2019-04-29T21:25:49.935Z,10.10
2019-04-29T21:28:18.978Z,10.10
2019-04-29T21:30:48.104Z,10.10
2019-04-29T21:33:21.243Z,10.10
2019-04-29T21:36:01.513Z,10.10
2019-04-29T21:38:35.372Z,10.10
2019-04-29T21:41:09.278Z,10.20
2019-04-29T21:43:40.330Z,10.10
2019-04-29T21:46:09.401Z,10.20
2019-04-29T21:48:38.436Z,10.20
2019-04-29T21:51:11.225Z,10.20
2019-04-29T21:53:40.329Z,10.20
2019-04-29T21:56:09.470Z,10.20
2019-04-29T21:58:38.929Z,10.20
2019-04-29T22:01:08.817Z,10.20
2019-04-29T22:03:37.964Z,10.30
2019-04-29T22:06:07.114Z,10.20
2019-04-29T22:08:36.193Z,10.20
2019-04-29T22:11:07.002Z,10.20
2019-04-29T22:13:39.074Z,10.20
2019-04-29T22:16:11.561Z,10.30
2019-04-29T22:18:38.456Z,10.20
2019-04-29T22:21:10.086Z,10.20
2019-04-29T22:23:38.639Z,10.00
2019-04-29T22:26:07.744Z,10.00
2019-04-29T22:28:36.697Z,10.00
2019-04-29T22:31:07.715Z,9.90
2019-04-29T22:33:38.527Z,9.90
2019-04-29T22:36:10.281Z,10.00
2019-04-29T22:38:38.618Z,10.00
2019-04-29T22:41:11.841Z,10.00
2019-04-29T22:43:50.190Z,10.10
2019-04-29T22:46:19.493Z,10.00
2019-04-29T22:48:49.138Z,10.00
2019-04-29T22:51:19.024Z,10.00
2019-04-29T22:53:48.403Z,10.00
2019-04-29T22:56:17.548Z,10.10
2019-04-29T22:58:47.468Z,10.00
2019-04-29T23:01:17.785Z,10.00
2019-04-29T23:03:47.314Z,10.00
2019-04-29T23:06:16.346Z,10.00
2019-04-29T23:08:45.418Z,10.00
2019-04-29T23:11:14.440Z,10.00
2019-04-29T23:13:45.477Z,10.00
2019-04-29T23:16:14.470Z,10.00
2019-04-29T23:18:45.350Z,10.00
2019-04-29T23:21:16.477Z,9.90
2019-04-29T23:24:08.367Z,9.70
2019-04-29T23:26:40.900Z,9.70
2019-04-29T23:29:07.398Z,9.70
2019-04-29T23:31:37.037Z,9.80
2019-04-29T23:34:06.265Z,9.80
2019-04-29T23:36:35.312Z,9.80
2019-04-29T23:39:05.815Z,9.90
2019-04-29T23:41:36.649Z,9.90
2019-04-29T23:44:08.798Z,9.90
2019-04-29T23:46:36.426Z,9.90
2019-04-29T23:49:06.770Z,9.90
2019-04-29T23:51:37.726Z,9.90
2019-04-29T23:54:08.069Z,9.90
2019-04-29T23:56:56.506Z,9.90
2019-04-29T23:59:35.116Z,10.00
